sensor_id;sensor_type;location;lat;lon;timestamp;temperature;humidity
58519;DHT22;44310;48.106;12.008;2022-11-21T00:00:56;16.50;83.60
58519;DHT22;44310;48.106;12.008;2022-11-21T00:03:23;16.50;83.40
58519;DHT22;44310;48.106;12.008;2022-11-21T00:05:50;16.50;83.60
58519;DHT22;44310;48.106;12.008;2022-11-21T00:08:19;16.50;83.60
58519;DHT22;44310;48.106;12.008;2022-11-21T00:10:47;16.50;83.50
58519;DHT22;44310;48.106;12.008;2022-11-21T00:13:17;16.50;83.50
58519;DHT22;44310;48.106;12.008;2022-11-21T00:15:44;16.50;83.50
58519;DHT22;44310;48.106;12.008;2022-11-21T00:18:11;16.50;83.30
58519;DHT22;44310;48.106;12.008;2022-11-21T00:20:40;16.50;83.20
58519;DHT22;44310;48.106;12.008;2022-11-21T00:23:07;16.50;83.10
58519;DHT22;44310;48.106;12.008;2022-11-21T00:25:35;16.50;82.90
58519;DHT22;44310;48.106;12.008;2022-11-21T00:28:03;16.50;82.80
58519;DHT22;44310;48.106;12.008;2022-11-21T00:30:30;16.50;82.80
58519;DHT22;44310;48.106;12.008;2022-11-21T00:32:58;16.50;82.70
58519;DHT22;44310;48.106;12.008;2022-11-21T00:35:25;16.50;82.40
58519;DHT22;44310;48.106;12.008;2022-11-21T00:37:53;16.50;82.40
58519;DHT22;44310;48.106;12.008;2022-11-21T00:40:20;16.50;82.50
58519;DHT22;44310;48.106;12.008;2022-11-21T00:42:47;16.50;82.30
58519;DHT22;44310;48.106;12.008;2022-11-21T00:45:14;16.50;82.20
58519;DHT22;44310;48.106;12.008;2022-11-21T00:47:48;16.50;82.20
58519;DHT22;44310;48.106;12.008;2022-11-21T00:50:15;16.50;81.80
58519;DHT22;44310;48.106;12.008;2022-11-21T00:52:43;16.50;81.70
58519;DHT22;44310;48.106;12.008;2022-11-21T00:55:10;16.50;81.80
58519;DHT22;44310;48.106;12.008;2022-11-21T00:57:37;16.50;81.60
58519;DHT22;44310;48.106;12.008;2022-11-21T01:00:04;16.60;81.60
58519;DHT22;44310;48.106;12.008;2022-11-21T01:02:32;16.60;82.20
58519;DHT22;44310;48.106;12.008;2022-11-21T01:04:59;16.60;82.50
58519;DHT22;44310;48.106;12.008;2022-11-21T01:07:26;16.60;82.90
58519;DHT22;44310;48.106;12.008;2022-11-21T01:09:53;16.60;83.50
58519;DHT22;44310;48.106;12.008;2022-11-21T01:12:20;16.60;83.70
58519;DHT22;44310;48.106;12.008;2022-11-21T01:14:47;16.60;83.80
58519;DHT22;44310;48.106;12.008;2022-11-21T01:17:14;16.60;84.10
58519;DHT22;44310;48.106;12.008;2022-11-21T01:19:42;16.60;84.30
58519;DHT22;44310;48.106;12.008;2022-11-21T01:22:09;16.60;84.10
58519;DHT22;44310;48.106;12.008;2022-11-21T01:24:36;16.60;84.50
58519;DHT22;44310;48.106;12.008;2022-11-21T01:27:03;16.60;85.40
58519;DHT22;44310;48.106;12.008;2022-11-21T01:29:30;16.60;84.50
58519;DHT22;44310;48.106;12.008;2022-11-21T01:31:57;16.60;84.50
58519;DHT22;44310;48.106;12.008;2022-11-21T01:34:24;16.60;84.30
58519;DHT22;44310;48.106;12.008;2022-11-21T01:36:51;16.50;84.70
58519;DHT22;44310;48.106;12.008;2022-11-21T01:39:18;16.60;85.00
58519;DHT22;44310;48.106;12.008;2022-11-21T01:41:46;16.50;85.10
58519;DHT22;44310;48.106;12.008;2022-11-21T01:44:25;16.60;85.30
58519;DHT22;44310;48.106;12.008;2022-11-21T01:46:53;16.60;85.20
58519;DHT22;44310;48.106;12.008;2022-11-21T01:49:26;16.60;85.10
58519;DHT22;44310;48.106;12.008;2022-11-21T01:52:00;16.60;85.00
58519;DHT22;44310;48.106;12.008;2022-11-21T01:54:48;16.50;84.90
58519;DHT22;44310;48.106;12.008;2022-11-21T01:57:25;16.50;84.90
58519;DHT22;44310;48.106;12.008;2022-11-21T02:00:04;16.50;84.80
58519;DHT22;44310;48.106;12.008;2022-11-21T02:02:34;16.60;84.70
58519;DHT22;44310;48.106;12.008;2022-11-21T02:05:06;16.50;84.70
58519;DHT22;44310;48.106;12.008;2022-11-21T02:07:37;16.50;84.70
58519;DHT22;44310;48.106;12.008;2022-11-21T02:10:06;16.50;84.80
58519;DHT22;44310;48.106;12.008;2022-11-21T02:12:56;16.50;84.80
58519;DHT22;44310;48.106;12.008;2022-11-21T02:15:26;16.50;84.80
58519;DHT22;44310;48.106;12.008;2022-11-21T02:17:53;16.60;84.80
58519;DHT22;44310;48.106;12.008;2022-11-21T02:20:25;16.60;84.60
58519;DHT22;44310;48.106;12.008;2022-11-21T02:23:23;16.50;84.30
58519;DHT22;44310;48.106;12.008;2022-11-21T02:25:54;16.50;84.10
58519;DHT22;44310;48.106;12.008;2022-11-21T02:28:21;16.50;84.10
58519;DHT22;44310;48.106;12.008;2022-11-21T02:30:50;16.50;83.90
58519;DHT22;44310;48.106;12.008;2022-11-21T02:33:17;16.50;83.90
58519;DHT22;44310;48.106;12.008;2022-11-21T02:35:58;16.50;83.90
58519;DHT22;44310;48.106;12.008;2022-11-21T02:38:36;16.50;84.10
58519;DHT22;44310;48.106;12.008;2022-11-21T02:41:12;16.60;84.10
58519;DHT22;44310;48.106;12.008;2022-11-21T02:43:46;16.50;83.60
58519;DHT22;44310;48.106;12.008;2022-11-21T02:46:17;16.50;83.60
58519;DHT22;44310;48.106;12.008;2022-11-21T02:48:44;16.50;83.80
58519;DHT22;44310;48.106;12.008;2022-11-21T02:51:11;16.60;84.10
58519;DHT22;44310;48.106;12.008;2022-11-21T02:53:38;16.60;84.40
58519;DHT22;44310;48.106;12.008;2022-11-21T02:56:05;16.60;84.50
58519;DHT22;44310;48.106;12.008;2022-11-21T02:58:32;16.60;84.90
58519;DHT22;44310;48.106;12.008;2022-11-21T03:00:59;16.60;85.30
58519;DHT22;44310;48.106;12.008;2022-11-21T03:03:27;16.60;85.70
58519;DHT22;44310;48.106;12.008;2022-11-21T03:05:54;16.60;85.70
58519;DHT22;44310;48.106;12.008;2022-11-21T03:08:22;16.60;86.10
58519;DHT22;44310;48.106;12.008;2022-11-21T03:10:49;16.60;86.40
58519;DHT22;44310;48.106;12.008;2022-11-21T03:13:16;16.60;86.40
58519;DHT22;44310;48.106;12.008;2022-11-21T03:15:44;16.60;86.00
58519;DHT22;44310;48.106;12.008;2022-11-21T03:18:12;16.60;86.30
58519;DHT22;44310;48.106;12.008;2022-11-21T03:20:39;16.50;86.30
58519;DHT22;44310;48.106;12.008;2022-11-21T03:23:06;16.50;86.30
58519;DHT22;44310;48.106;12.008;2022-11-21T03:25:33;16.50;86.30
58519;DHT22;44310;48.106;12.008;2022-11-21T03:28:00;16.50;86.30
58519;DHT22;44310;48.106;12.008;2022-11-21T03:30:27;16.50;86.10
58519;DHT22;44310;48.106;12.008;2022-11-21T03:32:55;16.40;85.90
58519;DHT22;44310;48.106;12.008;2022-11-21T03:35:23;16.40;86.00
58519;DHT22;44310;48.106;12.008;2022-11-21T03:37:50;16.40;85.80
58519;DHT22;44310;48.106;12.008;2022-11-21T03:40:17;16.40;86.10
58519;DHT22;44310;48.106;12.008;2022-11-21T03:42:44;16.40;86.00
58519;DHT22;44310;48.106;12.008;2022-11-21T03:45:11;16.40;86.50
58519;DHT22;44310;48.106;12.008;2022-11-21T03:47:39;16.40;86.60
58519;DHT22;44310;48.106;12.008;2022-11-21T03:50:06;16.50;86.60
58519;DHT22;44310;48.106;12.008;2022-11-21T03:52:33;16.50;86.50
58519;DHT22;44310;48.106;12.008;2022-11-21T03:55:00;16.60;86.40
58519;DHT22;44310;48.106;12.008;2022-11-21T03:57:28;16.70;86.20
58519;DHT22;44310;48.106;12.008;2022-11-21T03:59:55;16.50;85.80
58519;DHT22;44310;48.106;12.008;2022-11-21T04:02:22;16.50;85.60
58519;DHT22;44310;48.106;12.008;2022-11-21T04:04:49;16.50;85.40
58519;DHT22;44310;48.106;12.008;2022-11-21T04:07:16;16.50;85.10
58519;DHT22;44310;48.106;12.008;2022-11-21T04:09:43;16.50;85.00
58519;DHT22;44310;48.106;12.008;2022-11-21T04:12:10;16.50;84.70
58519;DHT22;44310;48.106;12.008;2022-11-21T04:14:37;16.50;84.60
58519;DHT22;44310;48.106;12.008;2022-11-21T04:17:04;16.50;84.50
58519;DHT22;44310;48.106;12.008;2022-11-21T04:19:31;16.50;84.60
58519;DHT22;44310;48.106;12.008;2022-11-21T04:21:59;16.50;84.70
58519;DHT22;44310;48.106;12.008;2022-11-21T04:24:26;16.50;84.80
58519;DHT22;44310;48.106;12.008;2022-11-21T04:26:54;16.40;83.80
58519;DHT22;44310;48.106;12.008;2022-11-21T04:29:21;16.40;83.70
58519;DHT22;44310;48.106;12.008;2022-11-21T04:31:48;16.40;83.40
58519;DHT22;44310;48.106;12.008;2022-11-21T04:34:15;16.40;83.30
58519;DHT22;44310;48.106;12.008;2022-11-21T04:36:42;16.40;83.20
58519;DHT22;44310;48.106;12.008;2022-11-21T04:39:09;16.40;83.00
58519;DHT22;44310;48.106;12.008;2022-11-21T04:41:36;16.40;83.30
58519;DHT22;44310;48.106;12.008;2022-11-21T04:44:04;16.50;83.70
58519;DHT22;44310;48.106;12.008;2022-11-21T04:46:31;16.50;83.50
58519;DHT22;44310;48.106;12.008;2022-11-21T04:48:58;16.50;83.40
58519;DHT22;44310;48.106;12.008;2022-11-21T04:51:25;16.50;83.40
58519;DHT22;44310;48.106;12.008;2022-11-21T04:53:52;16.60;83.70
58519;DHT22;44310;48.106;12.008;2022-11-21T04:56:19;16.60;83.80
58519;DHT22;44310;48.106;12.008;2022-11-21T04:58:46;16.60;83.80
58519;DHT22;44310;48.106;12.008;2022-11-21T05:01:13;16.60;83.80
58519;DHT22;44310;48.106;12.008;2022-11-21T05:03:40;16.60;83.80
58519;DHT22;44310;48.106;12.008;2022-11-21T05:06:07;16.60;84.00
58519;DHT22;44310;48.106;12.008;2022-11-21T05:08:34;16.60;84.50
58519;DHT22;44310;48.106;12.008;2022-11-21T05:11:01;16.60;84.10
58519;DHT22;44310;48.106;12.008;2022-11-21T05:13:47;16.60;84.30
58519;DHT22;44310;48.106;12.008;2022-11-21T05:16:14;16.60;84.30
58519;DHT22;44310;48.106;12.008;2022-11-21T05:18:41;16.60;84.40
58519;DHT22;44310;48.106;12.008;2022-11-21T05:21:08;16.60;84.70
58519;DHT22;44310;48.106;12.008;2022-11-21T05:23:35;16.60;84.80
58519;DHT22;44310;48.106;12.008;2022-11-21T05:26:03;16.60;84.70
58519;DHT22;44310;48.106;12.008;2022-11-21T05:28:30;16.60;84.30
58519;DHT22;44310;48.106;12.008;2022-11-21T05:30:57;16.50;84.30
58519;DHT22;44310;48.106;12.008;2022-11-21T05:33:24;16.50;84.30
58519;DHT22;44310;48.106;12.008;2022-11-21T05:35:51;16.60;84.00
58519;DHT22;44310;48.106;12.008;2022-11-21T05:38:18;16.50;83.80
58519;DHT22;44310;48.106;12.008;2022-11-21T05:40:45;16.50;83.70
58519;DHT22;44310;48.106;12.008;2022-11-21T05:43:12;16.50;83.30
58519;DHT22;44310;48.106;12.008;2022-11-21T05:45:58;16.50;83.00
58519;DHT22;44310;48.106;12.008;2022-11-21T05:48:25;16.50;82.80
58519;DHT22;44310;48.106;12.008;2022-11-21T05:50:52;16.50;82.80
58519;DHT22;44310;48.106;12.008;2022-11-21T05:53:19;16.50;82.80
58519;DHT22;44310;48.106;12.008;2022-11-21T05:55:46;16.50;82.60
58519;DHT22;44310;48.106;12.008;2022-11-21T05:58:13;16.60;82.70
58519;DHT22;44310;48.106;12.008;2022-11-21T06:00:40;16.60;82.80
58519;DHT22;44310;48.106;12.008;2022-11-21T06:03:09;16.60;82.70
58519;DHT22;44310;48.106;12.008;2022-11-21T06:06:07;16.60;82.80
58519;DHT22;44310;48.106;12.008;2022-11-21T06:08:39;16.60;82.80
58519;DHT22;44310;48.106;12.008;2022-11-21T06:11:09;16.60;83.10
58519;DHT22;44310;48.106;12.008;2022-11-21T06:13:36;16.60;82.90
58519;DHT22;44310;48.106;12.008;2022-11-21T06:16:09;16.60;83.00
58519;DHT22;44310;48.106;12.008;2022-11-21T06:18:44;16.60;83.10
58519;DHT22;44310;48.106;12.008;2022-11-21T06:21:17;16.60;83.50
58519;DHT22;44310;48.106;12.008;2022-11-21T06:23:45;16.60;83.50
58519;DHT22;44310;48.106;12.008;2022-11-21T06:26:14;16.60;83.80
58519;DHT22;44310;48.106;12.008;2022-11-21T06:28:42;16.60;84.10
58519;DHT22;44310;48.106;12.008;2022-11-21T06:31:12;16.60;84.00
58519;DHT22;44310;48.106;12.008;2022-11-21T06:33:41;16.60;84.10
58519;DHT22;44310;48.106;12.008;2022-11-21T06:36:13;16.60;84.60
58519;DHT22;44310;48.106;12.008;2022-11-21T06:38:41;16.60;84.10
58519;DHT22;44310;48.106;12.008;2022-11-21T06:41:23;16.60;83.70
58519;DHT22;44310;48.106;12.008;2022-11-21T06:43:50;16.50;83.50
58519;DHT22;44310;48.106;12.008;2022-11-21T06:46:17;16.60;83.60
58519;DHT22;44310;48.106;12.008;2022-11-21T06:48:46;16.50;83.90
58519;DHT22;44310;48.106;12.008;2022-11-21T06:51:18;16.50;83.90
58519;DHT22;44310;48.106;12.008;2022-11-21T06:53:46;16.50;83.60
58519;DHT22;44310;48.106;12.008;2022-11-21T06:56:14;16.60;83.60
58519;DHT22;44310;48.106;12.008;2022-11-21T06:58:41;16.60;83.70
58519;DHT22;44310;48.106;12.008;2022-11-21T07:01:09;16.60;83.60
58519;DHT22;44310;48.106;12.008;2022-11-21T07:03:36;16.60;83.50
58519;DHT22;44310;48.106;12.008;2022-11-21T07:06:04;16.60;83.20
58519;DHT22;44310;48.106;12.008;2022-11-21T07:08:34;16.60;82.90
58519;DHT22;44310;48.106;12.008;2022-11-21T07:11:07;16.60;82.80
58519;DHT22;44310;48.106;12.008;2022-11-21T07:13:51;16.60;82.60
58519;DHT22;44310;48.106;12.008;2022-11-21T07:16:18;16.60;82.40
58519;DHT22;44310;48.106;12.008;2022-11-21T07:18:46;16.60;82.20
58519;DHT22;44310;48.106;12.008;2022-11-21T07:21:13;16.60;81.90
58519;DHT22;44310;48.106;12.008;2022-11-21T07:23:40;16.60;81.80
58519;DHT22;44310;48.106;12.008;2022-11-21T07:26:09;16.60;81.80
58519;DHT22;44310;48.106;12.008;2022-11-21T07:28:36;16.60;82.00
58519;DHT22;44310;48.106;12.008;2022-11-21T07:31:03;16.60;82.20
58519;DHT22;44310;48.106;12.008;2022-11-21T07:33:39;16.60;82.10
58519;DHT22;44310;48.106;12.008;2022-11-21T07:36:06;16.60;81.90
58519;DHT22;44310;48.106;12.008;2022-11-21T07:38:33;16.60;82.10
58519;DHT22;44310;48.106;12.008;2022-11-21T07:41:01;16.70;82.50
58519;DHT22;44310;48.106;12.008;2022-11-21T07:43:28;16.60;82.60
58519;DHT22;44310;48.106;12.008;2022-11-21T07:45:55;16.60;82.70
58519;DHT22;44310;48.106;12.008;2022-11-21T07:48:22;16.60;82.60
58519;DHT22;44310;48.106;12.008;2022-11-21T07:50:49;16.60;82.60
58519;DHT22;44310;48.106;12.008;2022-11-21T07:53:16;16.60;82.60
58519;DHT22;44310;48.106;12.008;2022-11-21T07:55:43;16.60;82.60
58519;DHT22;44310;48.106;12.008;2022-11-21T07:58:13;16.60;83.00
58519;DHT22;44310;48.106;12.008;2022-11-21T08:00:41;16.60;83.20
58519;DHT22;44310;48.106;12.008;2022-11-21T08:03:10;16.60;83.30
58519;DHT22;44310;48.106;12.008;2022-11-21T08:05:42;16.60;83.50
58519;DHT22;44310;48.106;12.008;2022-11-21T08:08:11;16.60;83.50
58519;DHT22;44310;48.106;12.008;2022-11-21T08:10:41;16.60;83.60
58519;DHT22;44310;48.106;12.008;2022-11-21T08:13:09;16.60;83.40
58519;DHT22;44310;48.106;12.008;2022-11-21T08:15:36;16.60;83.50
58519;DHT22;44310;48.106;12.008;2022-11-21T08:18:08;16.60;83.50
58519;DHT22;44310;48.106;12.008;2022-11-21T08:20:36;16.60;83.70
58519;DHT22;44310;48.106;12.008;2022-11-21T08:23:03;16.60;83.60
58519;DHT22;44310;48.106;12.008;2022-11-21T08:25:33;16.60;83.60
58519;DHT22;44310;48.106;12.008;2022-11-21T08:28:00;16.60;83.40
58519;DHT22;44310;48.106;12.008;2022-11-21T08:30:29;16.60;83.40
58519;DHT22;44310;48.106;12.008;2022-11-21T08:32:57;16.60;83.10
58519;DHT22;44310;48.106;12.008;2022-11-21T08:35:25;16.60;83.10
58519;DHT22;44310;48.106;12.008;2022-11-21T08:37:59;16.60;83.10
58519;DHT22;44310;48.106;12.008;2022-11-21T08:40:28;16.60;83.20
58519;DHT22;44310;48.106;12.008;2022-11-21T08:43:00;16.60;83.20
58519;DHT22;44310;48.106;12.008;2022-11-21T08:45:28;16.60;83.10
58519;DHT22;44310;48.106;12.008;2022-11-21T08:47:55;16.60;83.10
58519;DHT22;44310;48.106;12.008;2022-11-21T08:50:23;16.60;82.90
58519;DHT22;44310;48.106;12.008;2022-11-21T08:52:50;16.60;82.90
58519;DHT22;44310;48.106;12.008;2022-11-21T08:55:17;16.60;82.80
58519;DHT22;44310;48.106;12.008;2022-11-21T08:57:44;16.60;82.50
58519;DHT22;44310;48.106;12.008;2022-11-21T09:00:12;16.60;82.20
58519;DHT22;44310;48.106;12.008;2022-11-21T09:02:39;16.60;81.90
58519;DHT22;44310;48.106;12.008;2022-11-21T09:05:07;16.60;82.20
58519;DHT22;44310;48.106;12.008;2022-11-21T09:07:35;16.60;82.20
58519;DHT22;44310;48.106;12.008;2022-11-21T09:10:02;16.60;82.20
58519;DHT22;44310;48.106;12.008;2022-11-21T09:12:30;16.60;82.30
58519;DHT22;44310;48.106;12.008;2022-11-21T09:14:57;16.60;82.40
58519;DHT22;44310;48.106;12.008;2022-11-21T09:17:42;16.60;82.40
58519;DHT22;44310;48.106;12.008;2022-11-21T09:20:32;16.60;82.40
58519;DHT22;44310;48.106;12.008;2022-11-21T09:23:05;16.60;82.40
58519;DHT22;44310;48.106;12.008;2022-11-21T09:25:32;16.60;82.20
58519;DHT22;44310;48.106;12.008;2022-11-21T09:28:04;16.60;82.30
58519;DHT22;44310;48.106;12.008;2022-11-21T09:30:32;16.60;82.40
58519;DHT22;44310;48.106;12.008;2022-11-21T09:33:04;16.50;82.40
58519;DHT22;44310;48.106;12.008;2022-11-21T09:35:31;16.50;82.40
58519;DHT22;44310;48.106;12.008;2022-11-21T09:37:59;16.60;82.60
58519;DHT22;44310;48.106;12.008;2022-11-21T09:40:28;16.50;83.90
58519;DHT22;44310;48.106;12.008;2022-11-21T09:43:34;16.50;82.80
58519;DHT22;44310;48.106;12.008;2022-11-21T09:46:10;16.30;81.10
58519;DHT22;44310;48.106;12.008;2022-11-21T09:48:55;16.20;80.00
58519;DHT22;44310;48.106;12.008;2022-11-21T09:51:25;16.10;80.00
58519;DHT22;44310;48.106;12.008;2022-11-21T09:53:58;16.20;80.70
58519;DHT22;44310;48.106;12.008;2022-11-21T09:56:29;16.30;81.50
58519;DHT22;44310;48.106;12.008;2022-11-21T10:01:33;16.20;78.70
58519;DHT22;44310;48.106;12.008;2022-11-21T10:04:01;16.20;79.30
58519;DHT22;44310;48.106;12.008;2022-11-21T10:06:34;16.20;79.20
58519;DHT22;44310;48.106;12.008;2022-11-21T10:09:18;16.20;79.40
58519;DHT22;44310;48.106;12.008;2022-11-21T10:15:02;16.40;79.00
58519;DHT22;44310;48.106;12.008;2022-11-21T10:23:36;16.50;79.40
58519;DHT22;44310;48.106;12.008;2022-11-21T10:26:35;16.50;79.60
58519;DHT22;44310;48.106;12.008;2022-11-21T10:29:30;16.50;78.20
58519;DHT22;44310;48.106;12.008;2022-11-21T10:32:02;16.30;76.80
58519;DHT22;44310;48.106;12.008;2022-11-21T10:34:37;16.10;75.00
58519;DHT22;44310;48.106;12.008;2022-11-21T10:37:15;16.00;76.70
58519;DHT22;44310;48.106;12.008;2022-11-21T10:39:48;16.00;76.20
58519;DHT22;44310;48.106;12.008;2022-11-21T10:42:57;15.90;77.20
58519;DHT22;44310;48.106;12.008;2022-11-21T10:45:16;15.90;77.10
58519;DHT22;44310;48.106;12.008;2022-11-21T10:47:46;15.90;76.60
58519;DHT22;44310;48.106;12.008;2022-11-21T10:53:09;15.70;76.80
58519;DHT22;44310;48.106;12.008;2022-11-21T10:56:20;15.70;76.80
58519;DHT22;44310;48.106;12.008;2022-11-21T10:58:53;15.70;77.20
58519;DHT22;44310;48.106;12.008;2022-11-21T11:06:56;15.70;78.10
58519;DHT22;44310;48.106;12.008;2022-11-21T11:09:31;15.70;78.00
58519;DHT22;44310;48.106;12.008;2022-11-21T11:12:27;15.70;77.70
58519;DHT22;44310;48.106;12.008;2022-11-21T11:15:23;15.70;77.50
58519;DHT22;44310;48.106;12.008;2022-11-21T11:18:00;15.70;77.40
58519;DHT22;44310;48.106;12.008;2022-11-21T11:20:43;15.70;77.30
58519;DHT22;44310;48.106;12.008;2022-11-21T11:28:16;15.70;77.00
58519;DHT22;44310;48.106;12.008;2022-11-21T11:30:48;15.70;76.90
58519;DHT22;44310;48.106;12.008;2022-11-21T11:38:52;15.70;76.50
58519;DHT22;44310;48.106;12.008;2022-11-21T11:44:39;15.70;76.70
58519;DHT22;44310;48.106;12.008;2022-11-21T11:47:28;15.70;76.50
58519;DHT22;44310;48.106;12.008;2022-11-21T11:50:09;15.70;76.50
58519;DHT22;44310;48.106;12.008;2022-11-21T11:52:56;15.70;76.30
58519;DHT22;44310;48.106;12.008;2022-11-21T11:56:00;15.70;76.40
58519;DHT22;44310;48.106;12.008;2022-11-21T11:58:43;15.70;76.30
58519;DHT22;44310;48.106;12.008;2022-11-21T12:01:18;15.60;76.40
58519;DHT22;44310;48.106;12.008;2022-11-21T12:07:04;15.70;76.30
58519;DHT22;44310;48.106;12.008;2022-11-21T12:10:04;15.70;76.40
58519;DHT22;44310;48.106;12.008;2022-11-21T12:12:41;15.60;74.50
58519;DHT22;44310;48.106;12.008;2022-11-21T12:15:25;15.60;73.90
58519;DHT22;44310;48.106;12.008;2022-11-21T12:18:25;15.40;72.70
58519;DHT22;44310;48.106;12.008;2022-11-21T12:21:15;15.40;74.00
58519;DHT22;44310;48.106;12.008;2022-11-21T12:23:57;15.50;74.00
58519;DHT22;44310;48.106;12.008;2022-11-21T12:31:55;15.90;75.60
58519;DHT22;44310;48.106;12.008;2022-11-21T12:35:01;16.00;76.50
58519;DHT22;44310;48.106;12.008;2022-11-21T12:37:39;16.10;76.90
58519;DHT22;44310;48.106;12.008;2022-11-21T12:45:37;16.30;78.30
58519;DHT22;44310;48.106;12.008;2022-11-21T12:48:31;16.20;78.40
58519;DHT22;44310;48.106;12.008;2022-11-21T12:51:43;16.30;78.90
58519;DHT22;44310;48.106;12.008;2022-11-21T12:54:43;16.30;79.20
58519;DHT22;44310;48.106;12.008;2022-11-21T12:57:18;16.30;79.30
58519;DHT22;44310;48.106;12.008;2022-11-21T13:05:40;16.40;80.00
58519;DHT22;44310;48.106;12.008;2022-11-21T13:08:14;16.40;80.70
58519;DHT22;44310;48.106;12.008;2022-11-21T13:11:02;16.40;80.30
58519;DHT22;44310;48.106;12.008;2022-11-21T13:13:58;16.40;80.50
58519;DHT22;44310;48.106;12.008;2022-11-21T13:16:28;16.50;80.80
58519;DHT22;44310;48.106;12.008;2022-11-21T13:19:15;16.50;80.80
58519;DHT22;44310;48.106;12.008;2022-11-21T13:21:50;16.50;80.90
58519;DHT22;44310;48.106;12.008;2022-11-21T13:27:35;16.50;81.40
58519;DHT22;44310;48.106;12.008;2022-11-21T13:32:41;16.60;81.70
58519;DHT22;44310;48.106;12.008;2022-11-21T13:45:55;16.60;81.90
58519;DHT22;44310;48.106;12.008;2022-11-21T14:07:38;16.50;82.40
58519;DHT22;44310;48.106;12.008;2022-11-21T14:10:30;16.60;82.50
58519;DHT22;44310;48.106;12.008;2022-11-21T14:13:01;16.60;82.20
58519;DHT22;44310;48.106;12.008;2022-11-21T14:15:43;16.60;81.30
58519;DHT22;44310;48.106;12.008;2022-11-21T14:18:23;16.60;81.80
58519;DHT22;44310;48.106;12.008;2022-11-21T14:20:58;16.60;82.60
58519;DHT22;44310;48.106;12.008;2022-11-21T14:23:32;16.60;83.20
58519;DHT22;44310;48.106;12.008;2022-11-21T14:26:15;16.60;83.60
58519;DHT22;44310;48.106;12.008;2022-11-21T14:28:45;16.70;85.00
58519;DHT22;44310;48.106;12.008;2022-11-21T14:31:13;16.70;85.70
58519;DHT22;44310;48.106;12.008;2022-11-21T14:33:42;16.80;86.40
58519;DHT22;44310;48.106;12.008;2022-11-21T14:36:24;16.80;87.00
58519;DHT22;44310;48.106;12.008;2022-11-21T14:38:54;16.70;87.70
58519;DHT22;44310;48.106;12.008;2022-11-21T14:41:48;16.70;87.60
58519;DHT22;44310;48.106;12.008;2022-11-21T14:44:18;16.60;87.80
58519;DHT22;44310;48.106;12.008;2022-11-21T14:46:47;16.60;88.70
58519;DHT22;44310;48.106;12.008;2022-11-21T14:52:03;16.60;89.90
58519;DHT22;44310;48.106;12.008;2022-11-21T14:54:38;16.70;90.00
58519;DHT22;44310;48.106;12.008;2022-11-21T14:57:07;16.70;90.10
58519;DHT22;44310;48.106;12.008;2022-11-21T14:59:37;16.60;90.20
58519;DHT22;44310;48.106;12.008;2022-11-21T15:02:17;16.70;90.20
58519;DHT22;44310;48.106;12.008;2022-11-21T15:04:46;16.60;90.30
58519;DHT22;44310;48.106;12.008;2022-11-21T15:07:21;16.60;90.20
58519;DHT22;44310;48.106;12.008;2022-11-21T15:09:57;16.60;90.20
58519;DHT22;44310;48.106;12.008;2022-11-21T15:15:25;16.60;90.00
58519;DHT22;44310;48.106;12.008;2022-11-21T15:17:58;16.60;89.90
58519;DHT22;44310;48.106;12.008;2022-11-21T15:20:52;16.40;89.70
58519;DHT22;44310;48.106;12.008;2022-11-21T15:23:29;16.50;89.60
58519;DHT22;44310;48.106;12.008;2022-11-21T15:25:57;16.50;89.30
58519;DHT22;44310;48.106;12.008;2022-11-21T15:28:28;16.50;89.00
58519;DHT22;44310;48.106;12.008;2022-11-21T15:31:18;16.50;88.60
58519;DHT22;44310;48.106;12.008;2022-11-21T15:33:58;16.40;88.30
58519;DHT22;44310;48.106;12.008;2022-11-21T15:39:31;16.40;87.50
58519;DHT22;44310;48.106;12.008;2022-11-21T15:45:01;16.40;86.80
58519;DHT22;44310;48.106;12.008;2022-11-21T15:47:28;16.40;86.40
58519;DHT22;44310;48.106;12.008;2022-11-21T15:49:55;16.40;86.00
58519;DHT22;44310;48.106;12.008;2022-11-21T15:52:22;16.40;85.60
58519;DHT22;44310;48.106;12.008;2022-11-21T15:54:49;16.40;85.20
58519;DHT22;44310;48.106;12.008;2022-11-21T15:57:16;16.30;85.00
58519;DHT22;44310;48.106;12.008;2022-11-21T15:59:49;16.30;84.60
58519;DHT22;44310;48.106;12.008;2022-11-21T16:02:16;16.40;84.30
58519;DHT22;44310;48.106;12.008;2022-11-21T16:04:44;16.30;84.00
58519;DHT22;44310;48.106;12.008;2022-11-21T16:07:11;16.30;83.70
58519;DHT22;44310;48.106;12.008;2022-11-21T16:09:38;16.30;83.10
58519;DHT22;44310;48.106;12.008;2022-11-21T16:12:08;16.30;82.90
58519;DHT22;44310;48.106;12.008;2022-11-21T16:14:35;16.20;82.60
58519;DHT22;44310;48.106;12.008;2022-11-21T16:17:02;16.30;82.30
58519;DHT22;44310;48.106;12.008;2022-11-21T16:19:29;16.30;81.60
58519;DHT22;44310;48.106;12.008;2022-11-21T16:21:57;16.40;81.60
58519;DHT22;44310;48.106;12.008;2022-11-21T16:24:24;16.30;81.10
58519;DHT22;44310;48.106;12.008;2022-11-21T16:26:51;16.20;80.50
58519;DHT22;44310;48.106;12.008;2022-11-21T16:29:20;16.30;80.20
58519;DHT22;44310;48.106;12.008;2022-11-21T16:31:49;16.30;80.10
58519;DHT22;44310;48.106;12.008;2022-11-21T16:34:19;16.30;79.90
58519;DHT22;44310;48.106;12.008;2022-11-21T16:36:47;16.30;79.30
58519;DHT22;44310;48.106;12.008;2022-11-21T16:39:14;16.30;79.30
58519;DHT22;44310;48.106;12.008;2022-11-21T16:41:55;16.20;79.10
58519;DHT22;44310;48.106;12.008;2022-11-21T16:44:22;16.20;79.00
58519;DHT22;44310;48.106;12.008;2022-11-21T16:46:49;16.20;78.90
58519;DHT22;44310;48.106;12.008;2022-11-21T16:49:20;16.30;78.90
58519;DHT22;44310;48.106;12.008;2022-11-21T16:51:47;16.20;78.40
58519;DHT22;44310;48.106;12.008;2022-11-21T16:54:14;16.20;78.40
58519;DHT22;44310;48.106;12.008;2022-11-21T16:56:41;16.30;78.30
58519;DHT22;44310;48.106;12.008;2022-11-21T16:59:08;16.30;78.20
58519;DHT22;44310;48.106;12.008;2022-11-21T17:01:35;16.30;77.90
58519;DHT22;44310;48.106;12.008;2022-11-21T17:04:03;16.30;77.80
58519;DHT22;44310;48.106;12.008;2022-11-21T17:06:30;16.30;77.70
58519;DHT22;44310;48.106;12.008;2022-11-21T17:08:58;16.30;77.40
58519;DHT22;44310;48.106;12.008;2022-11-21T17:11:28;16.20;77.30
58519;DHT22;44310;48.106;12.008;2022-11-21T17:14:02;16.30;77.40
58519;DHT22;44310;48.106;12.008;2022-11-21T17:16:31;16.30;77.30
58519;DHT22;44310;48.106;12.008;2022-11-21T17:18:59;16.20;77.10
58519;DHT22;44310;48.106;12.008;2022-11-21T17:21:27;16.20;76.70
58519;DHT22;44310;48.106;12.008;2022-11-21T17:23:54;16.30;76.40